createdAt,value
2019-05-29T00:00:20.742Z,99.90
2019-05-29T00:02:51.371Z,99.90
2019-05-29T00:05:24.893Z,99.90
2019-05-29T00:07:53.634Z,99.90
2019-05-29T00:10:22.336Z,99.90
2019-05-29T00:12:52.321Z,99.90
2019-05-29T00:15:21.003Z,99.90
2019-05-29T00:17:49.630Z,99.90
2019-05-29T00:20:18.695Z,99.90
2019-05-29T00:22:47.519Z,99.90
2019-05-29T00:25:16.672Z,99.90
2019-05-29T00:27:45.425Z,99.90
2019-05-29T00:30:15.057Z,99.90
2019-05-29T00:32:46.641Z,99.90
2019-05-29T00:35:16.393Z,99.90
2019-05-29T00:37:45.296Z,99.90
2019-05-29T00:40:15.054Z,99.90
2019-05-29T00:42:43.841Z,99.90
2019-05-29T00:45:13.438Z,99.90
2019-05-29T00:47:42.307Z,99.90
2019-05-29T00:50:12.383Z,99.90
2019-05-29T00:52:41.904Z,99.90
2019-05-29T00:55:10.608Z,99.90
2019-05-29T00:57:39.569Z,99.90
2019-05-29T01:00:09.052Z,99.90
2019-05-29T01:02:39.607Z,99.90
2019-05-29T01:05:09.718Z,99.90
2019-05-29T01:07:40.667Z,99.90
2019-05-29T01:10:10.595Z,99.90
2019-05-29T01:12:39.368Z,99.90
2019-05-29T01:15:08.612Z,99.90
2019-05-29T01:17:37.335Z,99.90
2019-05-29T01:20:06.757Z,99.90
2019-05-29T01:22:37.105Z,99.90
2019-05-29T01:25:07.230Z,99.90
2019-05-29T01:27:35.976Z,99.90
2019-05-29T01:30:06.830Z,99.90
2019-05-29T01:32:35.539Z,99.90
2019-05-29T01:35:06.440Z,99.90
2019-05-29T01:37:35.226Z,99.90
2019-05-29T01:40:19.111Z,99.90
2019-05-29T01:42:41.014Z,99.90
2019-05-29T01:45:10.226Z,99.90
2019-05-29T01:47:38.897Z,99.90
2019-05-29T01:50:07.729Z,99.90
2019-05-29T01:52:37.130Z,99.90
2019-05-29T01:55:08.587Z,99.90
2019-05-29T01:57:37.205Z,99.90
2019-05-29T02:00:10.993Z,99.90
2019-05-29T02:02:39.629Z,99.90
2019-05-29T02:05:08.548Z,99.90
2019-05-29T02:07:37.244Z,99.90
2019-05-29T02:10:10.624Z,99.90
2019-05-29T02:12:39.249Z,99.90
2019-05-29T02:15:22.872Z,99.90
2019-05-29T02:17:38.996Z,99.90
2019-05-29T02:20:08.519Z,99.90
2019-05-29T02:22:37.238Z,99.90
2019-05-29T02:25:08.231Z,99.90
2019-05-29T02:27:36.968Z,99.90
2019-05-29T02:30:07.710Z,99.90
2019-05-29T02:32:37.110Z,99.90
2019-05-29T02:35:07.738Z,99.90
2019-05-29T02:37:36.367Z,99.90
2019-05-29T02:40:07.191Z,99.90
2019-05-29T02:42:35.916Z,99.90
2019-05-29T02:45:06.613Z,99.90
2019-05-29T02:47:35.428Z,99.90
2019-05-29T02:50:07.279Z,99.90
2019-05-29T02:52:35.991Z,99.90
2019-05-29T02:55:08.867Z,99.90
2019-05-29T02:57:37.608Z,99.90
2019-05-29T03:00:08.681Z,99.90
2019-05-29T03:02:37.332Z,99.90
2019-05-29T03:05:07.685Z,99.90
2019-05-29T03:07:36.716Z,99.90
2019-05-29T03:10:10.755Z,99.90
2019-05-29T03:12:40.304Z,99.90
2019-05-29T03:15:09.598Z,99.90
2019-05-29T03:17:38.301Z,99.90
2019-05-29T03:20:08.523Z,99.90
2019-05-29T03:22:37.172Z,99.90
2019-05-29T03:25:10.010Z,99.90
2019-05-29T03:27:38.657Z,99.90
2019-05-29T03:30:08.182Z,99.90
2019-05-29T03:32:45.675Z,99.90
2019-05-29T03:35:09.419Z,99.90
2019-05-29T03:37:38.680Z,99.90
2019-05-29T03:40:08.167Z,99.90
2019-05-29T03:42:36.777Z,99.90
2019-05-29T03:45:06.370Z,99.90
2019-05-29T03:47:35.266Z,99.90
2019-05-29T03:50:06.893Z,99.90
2019-05-29T03:52:35.538Z,99.90
2019-05-29T03:55:07.236Z,99.90
2019-05-29T03:57:37.363Z,99.90
2019-05-29T04:00:07.424Z,99.90
2019-05-29T04:02:38.074Z,99.90
2019-05-29T04:05:07.736Z,99.90
2019-05-29T04:07:38.047Z,99.90
2019-05-29T04:10:07.960Z,99.90
2019-05-29T04:12:38.044Z,99.90
2019-05-29T04:15:07.822Z,99.90
2019-05-29T04:17:38.220Z,99.90
2019-05-29T04:20:07.406Z,99.90
2019-05-29T04:22:43.402Z,99.90
2019-05-29T04:25:13.037Z,99.90
2019-05-29T04:27:44.777Z,99.90
2019-05-29T04:30:14.076Z,99.90
2019-05-29T04:32:43.922Z,99.90
2019-05-29T04:35:12.825Z,99.90
2019-05-29T04:37:41.541Z,99.90
2019-05-29T04:40:10.377Z,99.90
2019-05-29T04:42:40.153Z,99.90
2019-05-29T04:45:09.450Z,99.90
2019-05-29T04:47:39.543Z,99.90
2019-05-29T04:50:09.298Z,99.90
2019-05-29T04:52:40.177Z,99.90
2019-05-29T04:55:08.587Z,99.90
2019-05-29T04:57:37.424Z,99.90
2019-05-29T05:00:07.981Z,99.90
2019-05-29T05:02:37.281Z,99.90
2019-05-29T05:05:09.118Z,99.90
2019-05-29T05:07:38.044Z,99.90
2019-05-29T05:10:07.489Z,99.90
2019-05-29T05:12:37.856Z,99.90
2019-05-29T05:15:07.715Z,99.90
2019-05-29T05:17:36.380Z,99.90
2019-05-29T05:20:06.128Z,99.90
2019-05-29T05:22:36.027Z,99.90
2019-05-29T05:25:08.083Z,99.90
2019-05-29T05:27:38.621Z,99.90
2019-05-29T05:30:08.989Z,99.90
2019-05-29T05:32:38.880Z,99.90
2019-05-29T05:35:07.843Z,99.90
2019-05-29T05:37:37.051Z,99.90
2019-05-29T05:40:06.639Z,99.90
2019-05-29T05:42:35.308Z,99.90
2019-05-29T05:45:05.712Z,99.90
2019-05-29T05:47:50.023Z,99.90
2019-05-29T05:50:07.429Z,99.90
2019-05-29T05:52:40.169Z,99.90
2019-05-29T05:55:09.258Z,99.90
2019-05-29T05:57:37.979Z,99.90
2019-05-29T06:00:11.486Z,99.90
2019-05-29T06:02:59.407Z,99.90
2019-05-29T06:05:29.658Z,99.90
2019-05-29T06:08:00.683Z,99.90
2019-05-29T06:10:34.076Z,99.90
2019-05-29T06:13:04.882Z,99.90
2019-05-29T06:15:34.287Z,99.90
2019-05-29T06:18:21.024Z,99.90
2019-05-29T06:20:43.226Z,99.90
2019-05-29T06:23:12.145Z,99.90
2019-05-29T06:25:43.896Z,99.90
2019-05-29T06:28:12.867Z,99.90
2019-05-29T06:30:43.281Z,99.90
2019-05-29T06:33:12.741Z,99.90
2019-05-29T06:35:41.732Z,99.90
2019-05-29T06:38:12.754Z,99.90
2019-05-29T06:40:44.807Z,99.90
2019-05-29T06:43:32.055Z,99.90
2019-05-29T06:46:00.807Z,99.90
2019-05-29T06:48:42.576Z,99.90
2019-05-29T06:51:02.208Z,99.90
2019-05-29T06:53:30.893Z,99.90
2019-05-29T06:56:01.506Z,99.90
2019-05-29T06:58:30.219Z,99.90
2019-05-29T07:01:01.030Z,99.90
2019-05-29T07:03:29.788Z,99.90
2019-05-29T07:05:58.432Z,99.90
2019-05-29T07:08:38.210Z,99.90
2019-05-29T07:11:00.648Z,99.90
2019-05-29T07:13:29.392Z,99.90
2019-05-29T07:15:58.048Z,99.90
2019-05-29T07:18:26.738Z,99.90
2019-05-29T07:20:55.707Z,99.90
2019-05-29T07:23:24.555Z,99.90
2019-05-29T07:25:53.302Z,99.90
2019-05-29T07:28:22.299Z,99.90
2019-05-29T07:31:00.897Z,99.90
2019-05-29T07:33:27.306Z,99.90
2019-05-29T07:35:56.260Z,99.90
2019-05-29T07:38:24.898Z,99.90
2019-05-29T07:40:58.508Z,99.90
2019-05-29T07:43:27.233Z,99.90
2019-05-29T07:45:58.673Z,99.90
2019-05-29T07:48:27.443Z,99.90
2019-05-29T07:51:07.066Z,99.90
2019-05-29T07:53:33.700Z,99.90
2019-05-29T07:56:02.176Z,99.90
2019-05-29T07:58:31.244Z,99.90
2019-05-29T08:01:11.798Z,99.90
2019-05-29T08:03:30.518Z,99.90
2019-05-29T08:06:00.284Z,99.90
2019-05-29T08:08:29.020Z,99.90
2019-05-29T08:10:59.455Z,99.90
2019-05-29T08:13:28.171Z,99.90
2019-05-29T08:16:04.234Z,99.90
2019-05-29T08:18:35.444Z,99.90
2019-05-29T08:21:09.302Z,99.90
2019-05-29T08:23:40.518Z,99.90
2019-05-29T08:26:09.363Z,99.90
2019-05-29T08:28:41.545Z,99.90
2019-05-29T08:31:11.623Z,99.90
2019-05-29T08:33:40.834Z,99.90
2019-05-29T08:36:10.327Z,99.90
2019-05-29T08:38:39.332Z,99.90
2019-05-29T08:41:09.545Z,99.90
2019-05-29T08:43:38.367Z,99.90
2019-05-29T08:46:08.786Z,99.90
2019-05-29T08:48:37.612Z,99.90
2019-05-29T08:51:06.234Z,99.90
2019-05-29T08:53:36.828Z,99.90
2019-05-29T08:56:06.020Z,99.90
2019-05-29T08:58:37.238Z,99.90
2019-05-29T09:01:06.483Z,99.90
2019-05-29T09:03:35.186Z,99.90
2019-05-29T09:06:08.914Z,99.90
2019-05-29T09:08:37.287Z,99.90
2019-05-29T09:11:05.995Z,99.90
2019-05-29T09:13:34.790Z,99.90
2019-05-29T09:16:03.789Z,99.90
2019-05-29T09:18:32.513Z,99.90
2019-05-29T09:21:03.587Z,99.90
2019-05-29T09:23:31.879Z,99.90
2019-05-29T09:26:14.246Z,99.90
2019-05-29T09:28:34.583Z,99.90
2019-05-29T09:31:03.402Z,99.90
2019-05-29T09:33:32.129Z,99.90
2019-05-29T09:36:02.552Z,99.90
2019-05-29T09:38:31.431Z,99.90
2019-05-29T09:41:05.882Z,98.00
2019-05-29T09:43:37.720Z,99.40
2019-05-29T09:46:16.944Z,98.90
2019-05-29T09:48:49.618Z,99.90
2019-05-29T09:51:21.354Z,99.60
2019-05-29T09:53:55.728Z,99.50
2019-05-29T09:56:24.284Z,95.80
2019-05-29T09:58:55.278Z,98.50
2019-05-29T10:01:25.981Z,99.90
2019-05-29T10:04:01.910Z,99.00
2019-05-29T10:06:29.791Z,99.90
2019-05-29T10:08:59.927Z,98.90
2019-05-29T10:11:28.948Z,99.30
2019-05-29T10:14:05.066Z,99.10
2019-05-29T10:16:33.936Z,99.90
2019-05-29T10:19:05.600Z,98.40
2019-05-29T10:21:41.427Z,99.10
2019-05-29T10:24:12.433Z,97.00
2019-05-29T10:27:03.482Z,93.90
2019-05-29T10:29:32.551Z,95.70
2019-05-29T10:32:01.624Z,93.70
2019-05-29T10:34:30.717Z,94.40
2019-05-29T10:37:06.821Z,96.20
2019-05-29T10:39:37.225Z,95.60
2019-05-29T10:42:06.256Z,98.40
2019-05-29T10:44:44.885Z,97.40
2019-05-29T10:47:13.643Z,95.60
2019-05-29T10:49:46.037Z,93.70
2019-05-29T10:52:17.559Z,93.20
2019-05-29T10:54:48.495Z,96.30
2019-05-29T10:57:17.378Z,99.20
2019-05-29T10:59:48.507Z,98.50
2019-05-29T11:02:17.733Z,96.30
2019-05-29T11:04:52.090Z,92.70
2019-05-29T11:07:18.384Z,91.50
2019-05-29T11:09:49.880Z,90.20
2019-05-29T11:12:18.834Z,91.90
2019-05-29T11:14:48.624Z,90.20
2019-05-29T11:17:19.978Z,86.10
2019-05-29T11:19:49.268Z,87.30
2019-05-29T11:22:26.363Z,88.10
2019-05-29T11:24:50.052Z,90.00
2019-05-29T11:27:19.714Z,91.00
2019-05-29T11:29:48.747Z,93.30
2019-05-29T11:32:17.703Z,92.90
2019-05-29T11:34:49.522Z,90.50
2019-05-29T11:37:39.081Z,91.80
2019-05-29T11:40:09.777Z,93.70
2019-05-29T11:42:40.995Z,93.90
2019-05-29T11:45:12.793Z,95.50
2019-05-29T11:47:44.348Z,94.80
2019-05-29T11:50:19.865Z,96.60
2019-05-29T11:52:50.875Z,95.00
2019-05-29T11:55:19.803Z,96.80
2019-05-29T11:57:48.718Z,94.10
2019-05-29T12:00:20.770Z,95.10
2019-05-29T12:02:51.679Z,97.70
2019-05-29T12:05:31.190Z,99.10
2019-05-29T12:08:02.641Z,98.30
2019-05-29T12:10:31.521Z,97.10
2019-05-29T12:13:01.626Z,98.50
2019-05-29T12:15:31.279Z,97.20
2019-05-29T12:18:23.034Z,94.00
2019-05-29T12:20:36.421Z,98.90
2019-05-29T12:23:22.961Z,99.50
2019-05-29T12:26:19.702Z,98.10
2019-05-29T12:28:31.999Z,95.80
2019-05-29T12:31:03.537Z,98.90
2019-05-29T12:33:37.034Z,99.60
2019-05-29T12:36:05.701Z,98.30
2019-05-29T12:38:37.206Z,97.20
2019-05-29T12:41:06.898Z,96.30
2019-05-29T12:43:35.614Z,97.90
2019-05-29T12:46:04.518Z,96.70
2019-05-29T12:48:35.496Z,95.30
2019-05-29T12:51:06.414Z,95.30
2019-05-29T12:53:35.322Z,99.10
2019-05-29T12:56:08.977Z,99.50
2019-05-29T12:58:39.178Z,97.70
2019-05-29T13:01:08.255Z,97.60
2019-05-29T13:03:37.025Z,98.50
2019-05-29T13:06:08.563Z,98.40
2019-05-29T13:08:41.316Z,98.80
2019-05-29T13:11:10.222Z,97.80
2019-05-29T13:13:39.314Z,97.10
2019-05-29T13:16:09.330Z,99.90
2019-05-29T13:18:39.428Z,98.50
2019-05-29T13:21:27.492Z,99.90
2019-05-29T13:24:00.263Z,97.80
2019-05-29T13:26:31.718Z,97.40
2019-05-29T13:29:06.050Z,97.60
2019-05-29T13:31:37.580Z,96.10
2019-05-29T13:34:07.137Z,95.80
2019-05-29T13:37:02.850Z,97.50
2019-05-29T13:39:31.586Z,95.60
2019-05-29T13:42:12.080Z,97.20
2019-05-29T13:44:44.043Z,96.50
2019-05-29T13:47:14.290Z,96.40
2019-05-29T13:49:44.481Z,99.10
2019-05-29T13:52:14.871Z,98.60
2019-05-29T13:54:43.590Z,99.90
2019-05-29T13:57:22.431Z,99.90
2019-05-29T13:59:52.463Z,99.90
2019-05-29T14:02:24.029Z,99.90
2019-05-29T14:04:54.165Z,99.90
2019-05-29T14:07:24.557Z,98.70
2019-05-29T14:09:53.259Z,97.60
2019-05-29T14:12:24.734Z,97.80
2019-05-29T14:14:53.377Z,99.90
2019-05-29T14:17:22.036Z,99.90
2019-05-29T14:19:51.843Z,98.30
2019-05-29T14:22:20.898Z,98.60
2019-05-29T14:24:49.996Z,98.30
2019-05-29T14:27:28.552Z,99.30
2019-05-29T14:29:57.238Z,97.30
2019-05-29T14:32:31.633Z,97.10
2019-05-29T14:35:00.424Z,96.70
2019-05-29T14:37:31.893Z,94.40
2019-05-29T14:40:01.642Z,94.90
2019-05-29T14:42:31.863Z,95.80
2019-05-29T14:45:02.054Z,98.60
2019-05-29T14:47:31.164Z,99.60
2019-05-29T14:50:00.202Z,97.30
2019-05-29T14:52:28.840Z,96.50
2019-05-29T14:54:57.627Z,97.60
2019-05-29T14:57:26.574Z,97.90
2019-05-29T14:59:55.357Z,97.20
2019-05-29T15:02:25.365Z,99.90
2019-05-29T15:04:57.308Z,99.90
2019-05-29T15:07:27.969Z,99.90
2019-05-29T15:10:08.479Z,99.40
2019-05-29T15:12:32.426Z,99.20
2019-05-29T15:15:02.406Z,98.60
2019-05-29T15:17:33.821Z,99.00
2019-05-29T15:20:09.894Z,98.70
2019-05-29T15:22:40.594Z,99.90
2019-05-29T15:25:18.376Z,99.10
2019-05-29T15:27:43.419Z,99.20
2019-05-29T15:30:18.677Z,99.90
2019-05-29T15:32:56.512Z,99.90
2019-05-29T15:35:25.306Z,99.90
2019-05-29T15:37:54.329Z,99.90
2019-05-29T15:40:28.619Z,99.90
2019-05-29T15:42:57.342Z,99.90
2019-05-29T15:45:37.326Z,98.30
2019-05-29T15:48:08.929Z,99.80
2019-05-29T15:50:44.670Z,99.50
2019-05-29T15:53:17.248Z,99.10
2019-05-29T15:55:49.161Z,99.90
2019-05-29T15:58:19.795Z,99.90
2019-05-29T16:00:53.467Z,99.90
2019-05-29T16:03:25.873Z,99.00
2019-05-29T16:05:57.269Z,99.70
2019-05-29T16:08:25.873Z,98.20
2019-05-29T16:10:54.592Z,99.10
2019-05-29T16:13:23.498Z,98.40
2019-05-29T16:15:52.231Z,99.90
2019-05-29T16:18:29.217Z,99.60
2019-05-29T16:20:56.137Z,99.30
2019-05-29T16:23:35.281Z,98.10
2019-05-29T16:25:58.108Z,99.50
2019-05-29T16:28:26.838Z,99.50
2019-05-29T16:30:56.361Z,99.50
2019-05-29T16:33:25.377Z,99.10
2019-05-29T16:35:55.749Z,99.70
2019-05-29T16:38:24.799Z,99.90
2019-05-29T16:40:54.673Z,99.90
2019-05-29T16:43:26.368Z,99.90
2019-05-29T16:45:56.948Z,99.90
2019-05-29T16:48:27.352Z,99.90
2019-05-29T16:50:59.040Z,99.90
2019-05-29T16:53:30.841Z,99.90
2019-05-29T16:55:59.613Z,99.90
2019-05-29T16:58:28.332Z,99.90
2019-05-29T17:00:57.154Z,99.90
2019-05-29T17:03:27.032Z,99.90
2019-05-29T17:06:05.036Z,99.90
2019-05-29T17:08:36.870Z,99.90
2019-05-29T17:11:06.533Z,99.90
2019-05-29T17:13:35.268Z,99.00
2019-05-29T17:16:08.011Z,99.60
2019-05-29T17:18:37.256Z,99.50
2019-05-29T17:21:06.348Z,99.90
2019-05-29T17:23:35.380Z,99.90
2019-05-29T17:26:10.612Z,99.90
2019-05-29T17:28:35.883Z,99.90
2019-05-29T17:31:04.634Z,99.90
2019-05-29T17:33:35.207Z,99.90
2019-05-29T17:36:04.899Z,99.90
2019-05-29T17:38:33.634Z,99.90
2019-05-29T17:41:03.889Z,98.70
2019-05-29T17:43:35.706Z,99.90
2019-05-29T17:46:17.715Z,99.90
2019-05-29T17:48:53.670Z,99.90
2019-05-29T17:51:26.159Z,99.90
2019-05-29T17:53:55.216Z,99.90
2019-05-29T17:56:36.711Z,99.90
2019-05-29T17:59:01.256Z,99.90
2019-05-29T18:01:33.096Z,99.90
2019-05-29T18:04:09.049Z,99.90
2019-05-29T18:06:36.879Z,99.90
2019-05-29T18:09:08.525Z,99.90
2019-05-29T18:11:40.018Z,99.90
2019-05-29T18:14:08.817Z,99.90
2019-05-29T18:16:38.528Z,99.90
2019-05-29T18:19:08.961Z,99.90
2019-05-29T18:21:41.716Z,99.90
2019-05-29T18:24:11.672Z,99.90
2019-05-29T18:26:46.792Z,99.90
2019-05-29T18:29:16.479Z,99.90
2019-05-29T18:31:45.504Z,99.90
2019-05-29T18:34:14.294Z,99.90
2019-05-29T18:36:48.235Z,99.90
2019-05-29T18:39:17.439Z,99.90
2019-05-29T18:41:46.361Z,99.90
2019-05-29T18:44:20.990Z,99.90
2019-05-29T18:46:52.575Z,99.90
2019-05-29T18:49:26.432Z,99.90
2019-05-29T18:52:00.077Z,99.90
2019-05-29T18:54:27.960Z,99.90
2019-05-29T18:57:14.622Z,99.90
2019-05-29T18:59:29.582Z,99.90
2019-05-29T19:01:59.957Z,99.90
2019-05-29T19:04:31.859Z,99.90
2019-05-29T19:07:02.123Z,99.90
2019-05-29T19:09:31.947Z,99.90
2019-05-29T19:12:01.250Z,99.90
2019-05-29T19:14:32.567Z,99.90
2019-05-29T19:17:01.439Z,99.90
2019-05-29T19:19:30.298Z,99.90
2019-05-29T19:22:02.184Z,99.90
2019-05-29T19:24:30.894Z,99.90
2019-05-29T19:26:59.921Z,99.90
2019-05-29T19:29:29.230Z,99.90
2019-05-29T19:31:57.971Z,99.90
2019-05-29T19:34:29.859Z,99.90
2019-05-29T19:36:58.594Z,99.90
2019-05-29T19:39:28.403Z,99.90
2019-05-29T19:41:57.290Z,99.90
2019-05-29T19:44:36.067Z,99.90
2019-05-29T19:47:04.294Z,99.90
2019-05-29T19:49:33.050Z,99.90
2019-05-29T19:52:02.743Z,99.90
2019-05-29T19:54:35.782Z,99.90
2019-05-29T19:57:07.738Z,99.90
2019-05-29T19:59:39.870Z,99.90
2019-05-29T20:02:09.884Z,99.90
2019-05-29T20:04:39.050Z,99.90
2019-05-29T20:07:08.214Z,99.90
2019-05-29T20:09:38.620Z,99.90
2019-05-29T20:12:07.308Z,99.90
2019-05-29T20:14:36.320Z,99.90
2019-05-29T20:17:05.422Z,99.90
2019-05-29T20:19:37.518Z,99.90
2019-05-29T20:22:04.525Z,99.90
2019-05-29T20:24:34.963Z,99.90
2019-05-29T20:27:03.776Z,99.90
2019-05-29T20:29:34.371Z,99.90
2019-05-29T20:32:03.314Z,99.90
2019-05-29T20:34:34.647Z,99.90
2019-05-29T20:37:06.486Z,99.90
2019-05-29T20:39:36.256Z,99.90
2019-05-29T20:42:05.552Z,99.90
2019-05-29T20:44:36.935Z,99.90
2019-05-29T20:47:07.612Z,99.90
2019-05-29T20:49:36.255Z,99.90
2019-05-29T20:52:05.615Z,99.90
2019-05-29T20:54:35.783Z,99.90
2019-05-29T20:57:11.756Z,99.90
2019-05-29T20:59:42.155Z,99.90
2019-05-29T21:02:11.289Z,99.90
2019-05-29T21:04:40.920Z,99.90
2019-05-29T21:07:09.651Z,99.90
2019-05-29T21:09:39.197Z,99.90
2019-05-29T21:12:08.317Z,99.90
2019-05-29T21:14:39.687Z,99.90
2019-05-29T21:17:08.460Z,99.90
2019-05-29T21:19:38.196Z,99.90
2019-05-29T21:22:08.913Z,99.90
2019-05-29T21:24:38.576Z,99.90
2019-05-29T21:27:07.361Z,99.90
2019-05-29T21:29:37.663Z,99.90
2019-05-29T21:32:12.097Z,99.90
2019-05-29T21:34:41.855Z,99.90
2019-05-29T21:37:11.308Z,99.90
2019-05-29T21:39:46.634Z,99.90
2019-05-29T21:42:16.084Z,99.90
2019-05-29T21:44:51.199Z,99.90
2019-05-29T21:47:28.796Z,99.90
2019-05-29T21:50:05.344Z,99.90
2019-05-29T21:52:39.585Z,99.90
2019-05-29T21:55:08.678Z,99.90
2019-05-29T21:57:38.101Z,99.90
2019-05-29T22:00:11.794Z,99.90
2019-05-29T22:02:42.287Z,99.90
2019-05-29T22:05:12.176Z,99.90
2019-05-29T22:07:42.876Z,99.90
2019-05-29T22:10:12.099Z,99.90
2019-05-29T22:12:43.164Z,99.90
2019-05-29T22:15:17.824Z,99.90
2019-05-29T22:17:46.600Z,99.90
2019-05-29T22:20:15.449Z,99.90
2019-05-29T22:22:45.798Z,99.90
2019-05-29T22:25:14.935Z,99.90
2019-05-29T22:27:43.949Z,99.90
2019-05-29T22:30:18.882Z,99.90
2019-05-29T22:32:46.733Z,99.90
2019-05-29T22:35:17.269Z,99.90
2019-05-29T22:37:46.225Z,99.90
2019-05-29T22:40:20.089Z,99.90
2019-05-29T22:42:51.324Z,99.90
2019-05-29T22:45:20.309Z,99.90
2019-05-29T22:47:53.686Z,99.90
2019-05-29T22:50:23.919Z,99.90
2019-05-29T22:52:53.924Z,99.90
2019-05-29T22:55:24.339Z,99.90
2019-05-29T22:57:57.982Z,99.90
2019-05-29T23:00:26.740Z,99.90
2019-05-29T23:02:56.099Z,99.90
2019-05-29T23:05:24.868Z,99.90
2019-05-29T23:07:56.069Z,99.90
2019-05-29T23:10:25.058Z,99.90
2019-05-29T23:12:54.524Z,99.90
2019-05-29T23:15:24.923Z,99.90
2019-05-29T23:17:54.486Z,99.90
2019-05-29T23:20:23.295Z,99.90
2019-05-29T23:22:52.574Z,99.90
2019-05-29T23:25:21.414Z,99.90
2019-05-29T23:27:50.058Z,99.90
2019-05-29T23:30:19.380Z,99.90
2019-05-29T23:32:49.768Z,99.90
2019-05-29T23:35:18.889Z,99.90
2019-05-29T23:37:47.480Z,99.90
2019-05-29T23:40:18.178Z,99.90
2019-05-29T23:42:50.104Z,99.90
2019-05-29T23:45:18.886Z,99.90
2019-05-29T23:47:53.405Z,99.90
2019-05-29T23:50:22.227Z,99.90
2019-05-29T23:52:50.940Z,99.90
2019-05-29T23:55:19.768Z,99.90
2019-05-29T23:57:48.402Z,99.90
